Weather at Easter Airfield

Public forecast

Using degrees Celsius for public forecast. Weather courtesy of forecast.io.

Closest aviation weather report (METAR) to Easter Airfield

Closest report is Inverness Airport, 13.2 nm (24.4 km) SSW. Retrieved 2021/07/31 05:50 UTC (23 minutes ago):

EGPE 310550Z VRB03KT 9999 6000S SCT013 BKN018 11/09 Q1007

Closest aviation forecast (TAF) to Easter Airfield

Forecast is more than 12 hours old.

Closest forecast is RAF Kinloss, 13.8 nm (25.5 km) ESE. Retrieved 2020/10/16 06:00 UTC (10 months ago):

TAF TAF EGQK 160658Z 1606/1624 CNL